Latest Weather Observations for Wilsons Promontory

IDV60801

Issued at 3:52 am EDT Wednesday 19 February 2020 (issued every 10 minutes, with the page automatically refreshed every 10 minutes)

About weather observations | Map of weather stations | Latest weather observations for VIC | Other Formats
Station Details ID: 085096 Name: WILSONS PROMONTORY LIGHTHOUSE Lat: -39.13 Lon: 146.42 Height: 95.0 m
Data from the previous 72 hours. | See also: Recent months at Wilsons Promontory
Date/Time
EDT
Temp
°C
App
Temp
°C
Dew
Point
°C
Rel
Hum
%
Delta-T
°C
Wind Press
QNH
hPa
Press
MSL
hPa
Rain since
9am
mm
Dir  Spd
km/h
Gust
km/h
Spd
kts
Gust
kts
19/03:30am 15.4 12.6 14.3 93 0.6 S 22 32 12 17 1003.3 - 36.4
19/03:00am 14.9 13.0 14.3 96 0.3 SSW 17 26 9 14 1003.4 1003.2 36.4
19/02:30am 14.8 10.5 14.5 98 0.2 S 30 37 16 20 1003.2 - 36.2
19/02:00am 15.0 10.4 14.5 97 0.3 S 32 37 17 20 1003.2 - 35.6
19/01:44am 15.4 11.3 14.8 96 0.3 S 30 35 16 19 1003.3 - 34.2
19/01:30am 15.7 15.3 15.1 96 0.3 S 11 15 6 8 1003.5 - 34.2
19/01:00am 15.7 13.8 15.2 97 0.3 SSE 19 24 10 13 1003.6 - 34.2
19/12:30am 15.9 15.3 15.6 98 0.2 SSE 13 20 7 11 1003.7 - 34.0
19/12:00am 15.6 14.9 15.3 98 0.2 SSE 13 17 7 9 1003.5 1003.3 34.0
 
Date/Time
EDT
Temp
°C
App
Temp
°C
Dew
Point
°C
Rel
Hum
%
Delta-T
°C
Wind Press
QNH
hPa
Press
MSL
hPa
Rain since
9am
mm
Dir  Spd
km/h
Gust
km/h
Spd
kts
Gust
kts
18/11:30pm 15.7 16.4 15.5 99 0.1 SSW 6 11 3 6 1003.4 - 34.0
18/11:00pm 15.7 15.8 15.5 99 0.1 WSW 9 15 5 8 1003.4 - 34.0
18/10:30pm 15.9 15.3 15.7 99 0.1 SW 13 19 7 10 1003.6 - 34.0
18/10:00pm 15.8 16.9 15.6 99 0.1 NE 4 11 2 6 1003.9 - 33.8
18/09:30pm 15.9 17.1 15.9 100 0.0 ESE 4 9 2 5 1004.3 - 33.8
18/09:00pm 15.9 15.4 15.9 100 0.0 SSE 13 20 7 11 1004.1 - 33.8
18/08:30pm 15.7 - 15.9 - - CALM 0 0 0 0 1003.9 - 33.8
18/08:00pm 15.9 - 16.1 - - SSE 13 15 7 8 1003.6 - 33.8
18/07:30pm 16.0 - 16.2 - - SE 17 24 9 13 1003.3 - 33.8
18/07:00pm 15.9 - 16.1 - - SE 26 35 14 19 1002.7 - 33.8
18/06:07pm 15.4 - 15.6 - - ESE 50 69 27 37 1001.7 - 33.8
18/06:00pm 15.6 - 15.8 - - SE 56 69 30 37 1001.3 1001.1 33.8
18/05:46pm 15.6 - 15.8 - - SE 52 70 28 38 1002.1 - 33.8
18/05:30pm 15.3 - 15.5 - - SE 57 65 31 35 1002.1 - 33.6
18/05:26pm 15.2 - 15.4 - - SSE 56 65 30 35 1002.7 - 33.4
18/05:00pm 15.2 - 15.4 - - S 54 67 29 36 1003.4 - 31.8
18/04:54pm 15.4 - 15.6 - - S 44 65 24 35 1003.3 - 31.0
18/04:43pm 15.4 - 15.6 - - S 50 59 27 32 1004.0 - 30.6
18/04:37pm 15.4 - 15.6 - - SSW 28 50 15 27 1004.8 - 30.2
18/04:30pm 15.3 - 15.5 - - NNW 22 39 12 21 1003.8 - 29.8
18/04:21pm 15.4 - 15.6 - - ESE 28 106 15 57 1002.2 - 29.4
18/04:19pm 15.4 - 15.6 - - NW 37 106 20 57 1001.8 - 29.4
18/04:16pm 15.4 - 15.6 - - SW 52 106 28 57 1001.3 - 29.2
18/04:12pm 15.5 - 15.7 - - SW 76 106 41 57 1001.8 - 29.2
18/04:07pm 16.3 - 16.5 - - SW 67 87 36 47 1003.2 - 29.0
18/04:05pm 16.4 - 16.6 - - SW 61 76 33 41 1003.5 - 29.0
18/04:04pm 16.5 - 16.7 - - SW 35 76 19 41 1003.8 - 29.0
18/04:00pm 16.5 - 16.7 - - SW 28 48 15 26 1004.0 - 28.8
18/03:47pm 16.7 - 16.9 - - SW 33 52 18 28 1004.3 - 21.2
18/03:30pm 16.8 - 17.0 - - E 22 30 12 16 1002.9 - 17.6
18/03:00pm 16.7 - 16.9 - - E 30 39 16 21 1002.8 1002.6 9.4
18/02:30pm 16.9 - 17.1 - - E 20 28 11 15 1004.3 - 9.2
18/02:00pm 16.6 - 16.8 - - E 30 35 16 19 1004.6 - 6.6
18/01:30pm 16.9 - 17.1 - - E 35 41 19 22 1004.8 - 5.6
18/01:00pm 17.1 - 17.3 - - ENE 20 32 11 17 1006.1 - 4.8
18/12:30pm 17.2 - 17.4 - - ENE 22 39 12 21 1006.6 - 2.6
18/12:00pm 17.4 - 17.6 - - E 44 52 24 28 1005.6 - 2.6
18/11:30am 17.2 - 17.4 - - E 46 56 25 30 1005.1 - 2.6
18/11:00am 17.3 - 17.5 - - E 43 50 23 27 1005.8 - 2.4
18/10:30am 17.4 14.6 17.4 100 0.0 ENE 28 33 15 18 1007.2 - 1.0
18/10:00am 17.5 16.2 17.3 99 0.1 NE 20 26 11 14 1008.0 - 0.6
18/09:30am 18.0 14.4 17.7 98 0.2 ENE 33 43 18 23 1007.5 - 0.0
18/09:00am 17.9 11.0 17.6 98 0.2 ENE 50 59 27 32 1006.0 1005.7 0.0
18/08:30am 17.5 11.7 17.0 97 0.3 ENE 43 52 23 28 1006.1 - 0.0
18/08:00am 17.3 8.9 16.7 96 0.4 ENE 56 61 30 33 1005.2 - 0.0
18/07:30am 17.6 12.0 16.6 94 0.6 ENE 41 48 22 26 1007.0 - 0.0
18/07:00am 17.6 10.0 16.6 94 0.6 ENE 52 59 28 32 1006.6 - 0.0
18/06:30am 17.8 9.9 16.8 94 0.6 ENE 54 63 29 34 1006.2 - 0.0
18/06:00am 17.7 10.2 16.9 95 0.5 ENE 52 63 28 34 1006.3 1006.0 0.0
18/05:30am 17.6 11.2 16.8 95 0.5 ENE 46 57 25 31 1006.6 - 0.0
18/05:00am 17.4 10.4 16.4 94 0.6 ENE 48 57 26 31 1006.6 - 0.0
18/04:30am 17.5 11.3 16.4 93 0.7 ENE 44 54 24 29 1007.7 - 0.0
18/04:00am 17.5 10.9 16.4 93 0.7 ENE 46 54 25 29 1007.7 - 0.0
18/03:30am 17.5 11.8 16.2 92 0.8 ENE 41 50 22 27 1008.4 - 0.0
18/03:00am 17.6 12.2 16.1 91 0.9 NE 39 50 21 27 1008.7 - 0.0
18/02:30am 17.6 11.8 16.1 91 0.9 NE 41 54 22 29 1009.0 - 0.0
18/02:00am 17.6 11.8 16.1 91 0.9 ENE 41 50 22 27 1009.3 - 0.0
18/01:30am 17.5 11.1 16.0 91 0.9 ENE 44 54 24 29 1009.7 - 0.0
18/01:00am 17.4 11.2 15.9 91 0.9 ENE 43 54 23 29 1010.3 - 0.0
18/12:30am 17.4 9.8 15.7 90 1.0 ENE 50 61 27 33 1010.2 - 0.0
18/12:00am 17.3 10.0 15.6 90 1.0 ENE 48 61 26 33 1010.4 1010.2 0.0
 
Date/Time
EDT
Temp
°C
App
Temp
°C
Dew
Point
°C
Rel
Hum
%
Delta-T
°C
Wind Press
QNH
hPa
Press
MSL
hPa
Rain since
9am
mm
Dir  Spd
km/h
Gust
km/h
Spd
kts
Gust
kts
17/11:00pm 17.4 9.6 15.2 87 1.3 ENE 50 59 27 32 1010.8 - 0.0
17/10:30pm 17.6 9.4 15.2 86 1.4 ENE 52 61 28 33 1011.3 - 0.0
17/10:00pm 17.5 9.2 15.0 85 1.5 ENE 52 61 28 33 1011.4 - 0.0
17/09:30pm 17.6 8.9 14.9 84 1.6 ENE 54 65 29 35 1011.5 - 0.0
17/09:00pm 17.5 9.6 14.8 84 1.6 ENE 50 61 27 33 1011.4 1011.2 0.0
17/08:30pm 17.5 8.7 14.6 83 1.7 ENE 54 63 29 34 1011.4 - 0.0
17/08:00pm 17.5 8.7 14.6 83 1.7 ENE 54 63 29 34 1011.3 - 0.0
17/07:30pm 17.6 9.9 14.5 82 1.8 ENE 48 59 26 32 1011.2 - 0.0
17/07:00pm 17.7 10.8 14.4 81 1.9 ENE 44 56 24 30 1011.4 - 0.0
17/06:30pm 17.9 10.1 14.2 79 2.1 ENE 48 57 26 31 1011.5 - 0.0
17/06:00pm 17.9 10.7 13.8 77 2.3 ENE 44 54 24 29 1011.6 1011.4 0.0
17/05:30pm 18.2 11.2 14.3 78 2.3 ENE 44 54 24 29 1011.6 - 0.0
17/05:00pm 18.0 10.9 14.1 78 2.2 ENE 44 54 24 29 1011.7 - 0.0
17/04:30pm 18.2 12.2 14.5 79 2.1 ENE 39 48 21 26 1012.0 - 0.0
17/04:00pm 18.2 11.2 14.3 78 2.3 ENE 44 54 24 29 1012.1 - 0.0
17/03:30pm 18.0 10.6 14.1 78 2.2 ENE 46 56 25 30 1012.4 - 0.0
17/03:00pm 17.7 10.2 13.8 78 2.2 ENE 46 54 25 29 1012.8 1012.6 0.0
17/02:30pm 17.6 9.3 13.9 79 2.1 ENE 50 56 27 30 1013.0 - 0.0
17/02:00pm 17.5 10.0 13.8 79 2.1 ENE 46 56 25 30 1013.4 - 0.0
17/01:30pm 17.3 10.1 13.6 79 2.1 ENE 44 56 24 30 1013.6 - 0.0
17/01:00pm 17.4 9.8 13.7 79 2.1 ENE 46 59 25 32 1013.8 - 0.0
17/12:30pm 17.4 10.1 13.5 78 2.2 ENE 44 54 24 29 1014.3 - 0.0
17/12:00pm 17.5 10.5 13.6 78 2.2 ENE 43 54 23 29 1014.5 1014.3 0.0
17/11:30am 17.8 10.7 13.5 76 2.4 ENE 43 54 23 29 1014.9 - 0.0
17/11:00am 17.7 10.4 13.4 76 2.4 ENE 44 54 24 29 1014.9 - 0.0
17/10:30am 17.7 9.6 13.2 75 2.5 ENE 48 56 26 30 1014.9 - 0.0
17/10:00am 17.6 8.6 12.7 73 2.7 ENE 52 57 28 31 1014.9 - 0.0
17/09:30am 17.3 8.1 12.2 72 2.8 ENE 52 61 28 33 1014.9 - 0.0
17/09:00am 17.1 7.4 11.8 71 2.9 ENE 54 61 29 33 1015.0 1014.8 0.0
17/08:30am 17.3 7.8 12.4 73 2.7 ENE 54 61 29 33 1014.9 - 0.0
17/08:00am 17.1 7.5 12.0 72 2.8 ENE 54 63 29 34 1014.7 - 0.0
17/07:30am 16.8 6.6 11.3 70 3.0 ENE 56 63 30 34 1014.7 - 0.0
17/07:00am 17.0 7.7 11.9 72 2.8 ENE 52 59 28 32 1014.8 - 0.0
17/06:30am 16.7 6.5 11.4 71 2.9 E 56 67 30 36 1014.4 - 0.0
17/06:00am 16.8 6.1 11.5 71 2.9 E 59 69 32 37 1014.1 1013.9 0.0
17/05:30am 16.8 6.0 11.1 69 3.1 ENE 59 67 32 36 1014.2 - 0.0
17/05:00am 16.8 5.6 11.3 70 3.0 E 61 69 33 37 1014.1 - 0.0
17/04:30am 16.8 5.8 11.9 73 2.7 E 61 69 33 37 1014.2 - 0.0
17/04:00am 16.8 5.4 11.9 73 2.7 E 63 70 34 38 1014.2 - 0.0
17/03:30am 16.7 4.9 11.8 73 2.7 ENE 65 74 35 40 1014.3 - 0.0
17/03:00am 16.7 4.5 11.6 72 2.8 E 67 72 36 39 1014.4 1014.2 0.0
17/02:30am 16.6 4.6 11.1 70 3.0 E 65 72 35 39 1014.9 - 0.0
17/02:00am 16.7 4.0 11.4 71 2.9 ENE 69 76 37 41 1015.2 - 0.0
17/01:00am 16.6 3.8 10.9 69 3.1 ENE 69 76 37 41 1015.7 - 0.0
17/12:30am 16.7 5.6 11.4 71 2.9 ENE 61 72 33 39 1016.1 - 0.0
17/12:00am 16.6 4.1 10.7 68 3.2 ENE 67 74 36 40 1016.4 1016.2 0.0
 
Date/Time
EDT
Temp
°C
App
Temp
°C
Dew
Point
°C
Rel
Hum
%
Delta-T
°C
Wind Press
QNH
hPa
Press
MSL
hPa
Rain since
9am
mm
Dir  Spd
km/h
Gust
km/h
Spd
kts
Gust
kts
16/11:30pm 16.7 4.0 11.4 71 2.9 ENE 69 76 37 41 1016.7 - 0.0
16/11:00pm 16.8 6.0 11.3 70 3.0 ENE 59 74 32 40 1017.1 - 0.0
16/10:30pm 16.8 4.8 11.1 69 3.1 ENE 65 74 35 40 1017.1 - 0.0
16/10:00pm 16.7 4.7 11.2 70 3.0 ENE 65 74 35 40 1017.3 - 0.0
16/09:30pm 16.7 4.6 10.8 68 3.2 ENE 65 74 35 40 1017.2 - 0.0
16/09:00pm 16.6 4.4 10.5 67 3.3 ENE 65 74 35 40 1016.9 - 0.0
16/08:30pm 16.7 4.8 11.4 71 2.9 ENE 65 74 35 40 1016.9 - 0.0
16/08:00pm 16.8 5.2 11.1 69 3.1 ENE 63 70 34 38 1016.8 - 0.0
16/07:30pm 16.8 5.0 10.6 67 3.3 E 63 70 34 38 1016.6 - 0.0
16/07:00pm 16.6 5.3 10.9 69 3.1 ENE 61 69 33 37 1016.8 - 0.0
16/06:30pm 17.0 5.4 11.1 68 3.2 E 63 70 34 38 1016.8 - 0.0
16/06:00pm 17.0 5.8 11.3 69 3.1 ENE 61 70 33 38 1016.8 1016.6 0.0
16/05:30pm 17.2 6.1 11.5 69 3.1 E 61 69 33 37 1016.9 - 0.0
16/05:00pm 17.2 5.9 11.0 67 3.4 E 61 69 33 37 1016.9 - 0.0
16/04:30pm 17.1 6.5 12.0 72 2.8 E 59 69 32 37 1017.0 - 0.0
16/04:00pm 17.3 7.2 11.8 70 3.0 E 56 65 30 35 1017.0 - 0.0
16/03:30pm 17.8 7.8 12.0 69 3.2 E 56 67 30 36 1017.2 - 0.0
16/03:00pm 17.5 7.3 12.0 70 3.0 E 57 67 31 36 1017.2 1017.0 0.0
16/02:30pm 17.7 7.7 11.9 69 3.2 E 56 65 30 35 1017.4 - 0.0
16/02:00pm 17.9 7.8 12.4 70 3.1 E 57 65 31 35 1017.4 - 0.0
16/01:30pm 17.9 7.7 11.9 68 3.3 E 57 67 31 36 1017.4 - 0.0
16/01:00pm 17.4 7.3 11.7 69 3.1 E 56 63 30 34 1017.9 - 0.0
16/12:30pm 17.2 7.4 11.5 69 3.1 E 54 63 29 34 1018.1 - 0.0
16/12:00pm 17.4 8.1 11.9 70 3.0 E 52 61 28 33 1018.3 - 0.0
16/11:30am 17.0 7.8 12.1 73 2.7 E 52 63 28 34 1018.1 - 0.0
16/11:00am 16.8 7.5 11.9 73 2.7 E 52 61 28 33 1018.1 - 0.0
16/10:30am 17.0 7.7 11.9 72 2.8 E 52 59 28 32 1018.1 - 0.0
16/10:00am 16.9 8.5 12.4 75 2.5 E 48 57 26 31 1018.2 - 0.0
16/09:30am 16.8 8.0 12.1 74 2.6 E 50 61 27 33 1017.9 - 0.0
16/09:00am 16.9 8.1 12.2 74 2.6 E 50 59 27 32 1017.5 1017.3 5.8
16/08:30am 16.9 8.1 12.2 74 2.6 E 50 59 27 32 1017.3 - 5.8
16/08:00am 17.0 8.9 12.1 73 2.7 E 46 54 25 29 1017.2 - 5.8
16/07:30am 16.8 8.7 12.1 74 2.6 E 46 56 25 30 1016.8 - 5.8
16/07:00am 16.4 7.8 11.6 73 2.6 E 48 57 26 31 1016.5 - 5.8
16/06:30am 16.4 8.3 12.0 75 2.4 E 46 54 25 29 1016.1 - 5.8
16/06:00am 16.3 8.7 11.9 75 2.4 E 43 50 23 27 1015.9 1015.7 5.8
16/05:30am 16.2 9.8 12.0 76 2.3 E 37 48 20 26 1015.9 - 5.8
16/05:00am 16.2 8.5 12.0 76 2.3 E 44 50 24 27 1015.6 - 5.8
16/04:30am 16.2 8.8 12.6 79 2.0 ENE 43 50 23 27 1015.5 - 5.8
16/04:00am 16.1 9.0 14.1 88 1.1 ENE 44 50 24 27 1015.0 - 5.8

Other formats

Comma delimited format used in spreadsheet applications
http://www.bom.gov.au/fwo/IDV60801/IDV60801.94893.axf

JavaScript Object Notation format (JSON) in row-major order
http://www.bom.gov.au/fwo/IDV60801/IDV60801.94893.json

Data quality

Most of these data are generated automatically and are frequently updated. Quality checks on data are not normally performed. It is possible for incorrect values to appear. Refer to information at About Latest Weather Observations and please check the disclaimer before using these data.